Coyle, Oklahoma
Current Conditions -  °F | °C
As of 12:53 PM on Thursday 27 Nov 2014 (Local Time) from KGOK Reporting Station
Clear Clear  
Wind Chill: 45°   Ceiling: Unl
Heat Index: 48°   Visibility: 10mi
Dew Point: 19°   Wind: 7mph
Humidity: 32%   Direction: 130°SE
Pressure: 30.46"   Gusts: NA
Location:  35.96°N, 97.23°W
Report Text: KGOK 271853Z AUTO 13006KT 10SM CLR 09/M07 A3046 RMK AO2 SLP322 T00891072
Loading
Personal Weather Stations






























Interactive Weather Map New forecast layout! Learn more

10-Day Weather Forecast

Advertisements
Track Severe Weather on mobile